Time;durP1;ratioP1;P1;durP2;ratioP2;P2;SDS_P1;SDS_P2;PMS_P1;PMS_P2;Temp;Humidity;BMP_temperature;BMP_pressure;BME280_temperature;BME280_humidity;BME280_pressure;Samples;Min_cycle;Max_cycle;Signal;HPM_P1;HPM_P2
2023/05/29 00:01:12;;;;;;;4.60;3.10;;;;;;;17.53;100.00;101344.72;5072430;28;20028;-74
2023/05/29 00:03:38;;;;;;;4.45;3.15;;;;;;;17.64;100.00;101385.53;5073432;28;20074;-71
2023/05/29 00:06:04;;;;;;;4.28;3.20;;;;;;;17.86;100.00;101396.75;5072908;28;20422;-71
2023/05/29 00:08:29;;;;;;;6.18;3.22;;;;;;;17.47;100.00;101336.38;5072907;28;20410;-70
2023/05/29 00:10:55;;;;;;;4.18;3.03;;;;;;;17.55;100.00;101327.50;5072892;28;20055;-71
2023/05/29 00:13:20;;;;;;;6.88;3.13;;;;;;;17.88;100.00;101382.94;5071807;28;20505;-70
2023/05/29 00:15:46;;;;;;;6.97;2.95;;;;;;;17.89;100.00;101381.19;5072935;28;20066;-70
2023/05/29 00:18:11;;;;;;;3.92;3.20;;;;;;;17.82;100.00;101388.31;5054073;28;20045;-70
2023/05/29 00:20:37;;;;;;;4.55;3.30;;;;;;;17.71;100.00;101367.25;5072317;28;20037;-70
2023/05/29 00:23:04;;;;;;;5.55;3.22;;;;;;;17.74;100.00;101386.88;5072239;28;20036;-70
2023/05/29 00:25:29;;;;;;;4.75;3.47;;;;;;;18.04;100.00;101393.53;5072293;28;20025;-70
2023/05/29 00:27:55;;;;;;;5.05;3.35;;;;;;;17.58;100.00;101339.44;5053856;28;20032;-70
2023/05/29 00:30:20;;;;;;;5.35;3.58;;;;;;;17.95;100.00;101410.13;5072608;28;20040;-70
2023/05/29 00:32:46;;;;;;;5.18;3.40;;;;;;;17.95;100.00;101399.00;5072112;28;20024;-70
2023/05/29 00:35:13;;;;;;;8.23;3.80;;;;;;;18.07;100.00;101401.13;5054031;28;20089;-70
2023/05/29 00:37:39;;;;;;;4.95;3.55;;;;;;;17.38;100.00;101310.97;5071601;28;20032;-70
2023/05/29 00:40:06;;;;;;;4.03;3.42;;;;;;;17.56;100.00;101344.63;5072107;28;20032;-70
2023/05/29 00:42:31;;;;;;;6.38;3.80;;;;;;;17.93;100.00;101404.19;5071695;28;20901;-69
2023/05/29 00:45:01;;;;;;;7.25;3.63;;;;;;;17.63;100.00;101356.38;5054463;28;20028;-70
2023/05/29 00:47:27;;;;;;;4.60;3.60;;;;;;;18.02;100.00;101391.03;5071546;28;20043;-69
2023/05/29 00:49:55;;;;;;;7.55;3.42;;;;;;;17.86;100.00;101373.59;5071748;28;20411;-70
2023/05/29 00:52:21;;;;;;;6.03;3.90;;;;;;;17.73;100.00;101347.44;5071777;28;20028;-71
2023/05/29 00:54:46;;;;;;;6.78;4.00;;;;;;;17.75;100.00;101361.09;5072057;28;20029;-74
2023/05/29 00:57:13;;;;;;;6.03;4.10;;;;;;;18.07;100.00;101398.56;5071718;28;20040;-70
2023/05/29 00:59:40;;;;;;;4.30;3.83;;;;;;;17.93;100.00;101421.38;5071400;28;20035;-71
2023/05/29 01:02:06;;;;;;;6.13;4.13;;;;;;;17.80;100.00;101397.81;5071133;28;20075;-71
2023/05/29 01:04:33;;;;;;;8.18;4.05;;;;;;;17.79;100.00;101390.13;5071526;28;20064;-69
2023/05/29 01:07:03;;;;;;;7.93;4.20;;;;;;;17.73;100.00;101387.78;5071440;28;20024;-70
2023/05/29 01:09:30;;;;;;;7.43;4.72;;;;;;;17.54;100.00;101359.28;5068422;28;20041;-70
2023/05/29 01:12:14;;;;;;;5.57;4.47;;;;;;;17.92;100.00;101393.97;5071428;28;20132;-70
2023/05/29 01:15:12;;;;;;;5.72;4.53;;;;;;;17.87;100.00;101372.69;5071074;28;20087;-69
2023/05/29 01:17:41;;;;;;;7.63;5.03;;;;;;;17.83;100.00;101389.97;5071501;28;20447;-71
2023/05/29 01:20:31;;;;;;;7.10;4.55;;;;;;;17.58;100.00;101339.44;5071431;28;20038;-70
2023/05/29 01:23:09;;;;;;;7.50;4.57;;;;;;;17.81;100.00;101376.31;5066164;28;20102;-70
2023/05/29 01:26:17;;;;;;;5.88;4.68;;;;;;;17.57;100.00;101307.72;5053143;28;20102;-70
2023/05/29 01:28:47;;;;;;;7.75;4.28;;;;;;;17.58;100.00;101334.28;5039800;28;20124;-71
2023/05/29 01:31:15;;;;;;;7.35;5.90;;;;;;;18.02;100.00;101385.03;5071340;28;20495;-70
2023/05/29 01:33:41;;;;;;;6.85;5.20;;;;;;;17.75;100.00;101331.94;5070578;28;20107;-69
2023/05/29 01:36:11;;;;;;;8.70;6.50;;;;;;;17.95;100.00;101378.41;5070288;28;20464;-69
2023/05/29 01:38:36;;;;;;;9.73;6.95;;;;;;;17.84;100.00;101329.06;5070725;28;20025;-70
2023/05/29 01:41:03;;;;;;;8.20;7.20;;;;;;;17.94;100.00;101323.53;5070417;28;20032;-72
2023/05/29 01:43:29;;;;;;;8.55;7.57;;;;;;;18.03;100.00;101361.81;5071047;28;20028;-69
2023/05/29 01:45:55;;;;;;;9.10;8.00;;;;;;;17.96;100.00;101331.19;5070938;28;20111;-70
2023/05/29 01:48:21;;;;;;;9.43;7.90;;;;;;;18.31;100.00;101358.19;5069558;28;20476;-71
2023/05/29 01:50:48;;;;;;;9.30;7.78;;;;;;;18.16;100.00;101380.22;5070390;28;20106;-70
2023/05/29 01:53:13;;;;;;;9.48;7.82;;;;;;;17.88;100.00;101349.50;5070788;28;20025;-70
2023/05/29 01:55:39;;;;;;;8.85;7.95;;;;;;;17.79;100.00;101333.53;5070787;28;20031;-71
2023/05/29 01:58:06;;;;;;;9.65;8.00;;;;;;;17.97;100.00;101335.44;5070694;28;20513;-70
2023/05/29 02:00:32;;;;;;;10.70;7.80;;;;;;;17.86;100.00;101350.44;5070473;28;20497;-70
2023/05/29 02:02:57;;;;;;;11.93;7.95;;;;;;;17.98;100.00;101352.56;5070950;28;20043;-70
2023/05/29 02:05:22;;;;;;;9.63;8.40;;;;;;;18.19;100.00;101377.53;5071059;28;20392;-71
2023/05/29 02:07:48;;;;;;;9.40;8.40;;;;;;;18.16;100.00;101368.16;5070747;28;20025;-71
2023/05/29 02:10:13;;;;;;;10.05;9.00;;;;;;;17.59;100.00;101303.38;5070476;28;20040;-70
2023/05/29 02:12:39;;;;;;;10.05;8.70;;;;;;;18.02;100.00;101395.31;5071202;28;20031;-70
2023/05/29 02:15:05;;;;;;;11.23;8.75;;;;;;;17.66;100.00;101334.88;5070418;28;20060;-71
2023/05/29 02:17:31;;;;;;;9.77;8.70;;;;;;;17.81;100.00;101349.75;5070995;28;20039;-70
2023/05/29 02:19:56;;;;;;;10.45;9.35;;;;;;;17.81;100.00;101347.16;5052511;28;20076;-71
2023/05/29 02:22:22;;;;;;;11.73;9.68;;;;;;;17.94;100.00;101389.59;5070364;28;20029;-72
2023/05/29 02:24:47;;;;;;;11.98;9.40;;;;;;;17.86;100.00;101371.03;5052282;28;20033;-71
2023/05/29 02:27:13;;;;;;;11.30;10.07;;;;;;;17.82;100.00;101359.16;5052367;28;20047;-72
2023/05/29 02:29:38;;;;;;;12.02;9.82;;;;;;;17.83;100.00;101350.53;5070348;28;20055;-70
2023/05/29 02:32:04;;;;;;;12.18;10.00;;;;;;;18.11;100.00;101400.97;5070555;28;20548;-70
2023/05/29 02:34:30;;;;;;;10.40;9.45;;;;;;;18.09;100.00;101405.34;5051866;28;20056;-70
2023/05/29 02:36:56;;;;;;;12.40;9.98;;;;;;;18.19;100.00;101416.13;5069916;28;20423;-71
2023/05/29 02:39:23;;;;;;;12.15;10.90;;;;;;;17.99;100.00;101405.72;5070652;28;20062;-71
2023/05/29 02:41:48;;;;;;;11.20;10.10;;;;;;;18.09;100.00;101401.91;5068452;28;20155;-70
2023/05/29 02:44:14;;;;;;;12.00;10.52;;;;;;;18.00;100.00;101397.97;5069788;28;20127;-70
2023/05/29 02:46:39;;;;;;;12.48;11.20;;;;;;;18.08;100.00;101403.66;5069503;28;20124;-71
2023/05/29 02:49:05;;;;;;;12.98;10.40;;;;;;;17.97;100.00;101405.78;5055337;28;20028;-71
2023/05/29 02:51:32;;;;;;;11.50;10.32;;;;;;;17.86;100.00;101409.63;5073518;28;20024;-70
2023/05/29 02:53:57;;;;;;;10.93;9.82;;;;;;;17.81;100.00;101398.63;5056014;28;20040;-70
2023/05/29 02:56:23;;;;;;;12.27;9.57;;;;;;;18.15;100.00;101405.13;5073395;28;20028;-69
2023/05/29 02:58:50;;;;;;;10.50;9.50;;;;;;;18.23;100.00;101383.38;5073879;28;20457;-70
2023/05/29 03:01:15;;;;;;;10.88;9.73;;;;;;;18.34;100.00;101414.75;5055551;28;20037;-70
2023/05/29 03:03:40;;;;;;;11.05;9.95;;;;;;;18.27;100.00;101397.84;5073220;28;20033;-70
2023/05/29 03:06:06;;;;;;;10.20;9.10;;;;;;;18.05;100.00;101365.16;5073603;28;20405;-70
2023/05/29 03:08:33;;;;;;;10.80;9.18;;;;;;;18.38;100.00;101432.59;5073034;28;20083;-71
2023/05/29 03:10:58;;;;;;;11.15;10.05;;;;;;;18.23;100.00;101425.44;5073910;28;20441;-70
2023/05/29 03:13:24;;;;;;;10.88;9.45;;;;;;;18.37;100.00;101430.94;5073238;28;20051;-69
2023/05/29 03:15:50;;;;;;;10.57;9.52;;;;;;;18.33;100.00;101431.94;5073414;28;20090;-69
2023/05/29 03:18:16;;;;;;;10.57;9.57;;;;;;;18.33;100.00;101421.63;5073665;28;20239;-69
2023/05/29 03:20:41;;;;;;;10.88;9.32;;;;;;;18.14;100.00;101376.88;5073224;28;20119;-69
2023/05/29 03:23:07;;;;;;;10.60;9.23;;;;;;;18.56;100.00;101449.97;5055422;28;20055;-71
2023/05/29 03:25:32;;;;;;;10.18;9.15;;;;;;;18.13;100.00;101377.75;5071798;28;20024;-70
2023/05/29 03:27:57;;;;;;;10.88;9.52;;;;;;;18.28;100.00;101408.09;5073549;28;20067;-72
2023/05/29 03:30:24;;;;;;;10.48;9.40;;;;;;;18.13;100.00;101401.75;5073334;28;20505;-69
2023/05/29 03:32:49;;;;;;;10.52;8.82;;;;;;;18.28;100.00;101413.25;5070799;28;20029;-69
2023/05/29 03:35:15;;;;;;;9.27;8.27;;;;;;;18.27;100.00;101385.81;5054762;28;20089;-72
2023/05/29 03:37:40;;;;;;;10.25;8.23;;;;;;;18.70;100.00;101450.31;5073138;28;20028;-70
2023/05/29 03:40:06;;;;;;;9.60;8.57;;;;;;;18.71;100.00;101472.63;5073625;28;20340;-73
2023/05/29 03:42:32;;;;;;;11.73;9.15;;;;;;;18.87;100.00;101466.00;5055129;28;20033;-71
2023/05/29 03:44:57;;;;;;;10.07;9.02;;;;;;;18.53;100.00;101405.47;5073339;28;20044;-72
2023/05/29 03:47:23;;;;;;;9.57;8.57;;;;;;;18.30;100.00;101367.69;5054262;28;20021;-72
2023/05/29 03:49:48;;;;;;;12.18;9.55;;;;;;;18.91;100.00;101459.81;5072539;28;20115;-70
2023/05/29 03:52:14;;;;;;;12.45;9.82;;;;;;;18.96;100.00;101450.16;5053986;28;20039;-70
2023/05/29 03:54:40;;;;;;;11.63;10.43;;;;;;;18.63;100.00;101409.38;5072572;28;20446;-70
2023/05/29 03:57:06;;;;;;;13.55;11.63;;;;;;;18.24;100.00;101364.50;5072551;28;20024;-70
2023/05/29 03:59:32;;;;;;;11.75;10.60;;;;;;;18.77;100.00;101436.31;5053765;28;20102;-70
2023/05/29 04:01:59;;;;;;;15.07;10.93;;;;;;;18.80;100.00;101456.78;5072568;28;20486;-71
2023/05/29 04:04:24;;;;;;;11.85;9.43;;;;;;;18.71;100.00;101461.47;5054766;28;20016;-71
2023/05/29 04:06:50;;;;;;;12.52;9.70;;;;;;;18.38;100.00;101393.16;5072685;28;20038;-71
2023/05/29 04:09:16;;;;;;;15.25;10.27;;;;;;;18.80;100.00;101433.59;5072545;28;20501;-72
2023/05/29 04:11:44;;;;;;;10.40;9.05;;;;;;;18.54;100.00;101400.25;5072409;28;20056;-71
2023/05/29 04:14:09;;;;;;;9.63;8.60;;;;;;;18.87;100.00;101450.53;5072331;28;20516;-70
2023/05/29 04:16:35;;;;;;;9.82;8.70;;;;;;;18.82;100.00;101441.28;5071380;28;20032;-72
2023/05/29 04:19:00;;;;;;;9.57;8.45;;;;;;;18.77;100.00;101402.81;5054334;28;20035;-77
2023/05/29 04:21:26;;;;;;;25.33;9.15;;;;;;;19.74;100.00;101442.72;5054279;28;20963;-69
2023/05/29 04:23:52;;;;;;;10.90;8.60;;;;;;;19.09;100.00;101392.97;5072664;28;20032;-70
2023/05/29 04:26:17;;;;;;;12.10;8.32;;;;;;;19.03;100.00;101430.13;5054529;28;20025;-73
2023/05/29 04:28:43;;;;;;;11.55;8.38;;;;;;;19.13;100.00;101436.63;5072521;28;20063;-72
2023/05/29 04:31:14;;;;;;;9.93;8.70;;;;;;;19.19;100.00;101405.44;5072402;28;20029;-72
2023/05/29 04:33:40;;;;;;;12.13;8.93;;;;;;;19.24;100.00;101379.44;5072461;28;20048;-71
2023/05/29 04:36:05;;;;;;;10.32;8.63;;;;;;;19.22;100.00;101374.34;5072533;28;20028;-71
2023/05/29 04:38:31;;;;;;;10.60;8.68;;;;;;;19.65;100.00;101365.66;5072448;28;20457;-72
2023/05/29 04:40:58;;;;;;;9.32;7.75;;;;;;;19.66;100.00;101398.31;5067547;28;20025;-71
2023/05/29 04:43:26;;;;;;;12.23;7.82;;;;;;;19.94;100.00;101391.06;5071985;28;20032;-71
2023/05/29 04:45:52;;;;;;;11.98;8.57;;;;;;;20.41;100.00;101410.47;5065601;28;20033;-69
2023/05/29 04:48:18;;;;;;;11.93;7.88;;;;;;;20.30;100.00;101427.38;5050644;28;20037;-69
2023/05/29 04:50:44;;;;;;;9.23;7.72;;;;;;;19.97;100.00;101378.00;5053181;28;20415;-70
2023/05/29 04:53:10;;;;;;;9.57;7.82;;;;;;;19.96;100.00;101367.75;5051593;28;20702;-70
2023/05/29 04:55:36;;;;;;;9.25;8.05;;;;;;;20.42;100.00;101416.50;5032757;28;20033;-71
2023/05/29 04:58:02;;;;;;;9.20;7.90;;;;;;;20.19;100.00;101368.44;5051458;28;20483;-71
2023/05/29 05:00:27;;;;;;;8.02;7.22;;;;;;;20.00;100.00;101369.28;5051491;28;20036;-70
2023/05/29 05:02:53;;;;;;;9.43;7.13;;;;;;;20.28;100.00;101372.34;5051039;28;20146;-71
2023/05/29 05:05:18;;;;;;;8.45;7.55;;;;;;;20.83;100.00;101420.56;5032984;28;20418;-71
2023/05/29 05:07:44;;;;;;;8.35;7.00;;;;;;;20.25;100.00;101356.97;5050780;28;20585;-70
2023/05/29 05:10:09;;;;;;;10.63;7.57;;;;;;;20.42;100.00;101380.31;5050500;28;20037;-71
2023/05/29 05:12:35;;;;;;;9.48;7.32;;;;;;;20.23;100.00;101361.38;5032024;28;20407;-72
2023/05/29 05:15:00;;;;;;;8.32;7.38;;;;;;;20.32;100.00;101359.19;5033115;28;20550;-71
2023/05/29 05:17:26;;;;;;;10.25;7.10;;;;;;;19.70;100.00;101279.41;5051113;28;20503;-71
2023/05/29 05:19:53;;;;;;;8.40;7.45;;;;;;;20.55;100.00;101381.41;5033448;28;20058;-71
2023/05/29 05:22:19;;;;;;;9.10;8.20;;;;;;;20.14;100.00;101348.84;5051055;28;20044;-70
2023/05/29 05:24:44;;;;;;;9.60;8.35;;;;;;;20.57;100.00;101393.34;5051052;28;20025;-70
2023/05/29 05:27:10;;;;;;;9.27;7.95;;;;;;;20.43;100.00;101333.72;5051252;28;20032;-71
2023/05/29 05:29:35;;;;;;;8.93;7.82;;;;;;;20.56;100.00;101378.75;5050908;28;20123;-73
2023/05/29 05:32:01;;;;;;;9.52;7.35;;;;;;;20.48;100.00;101328.34;5050864;28;20064;-71
2023/05/29 05:34:26;;;;;;;9.65;8.02;;;;;;;20.44;100.00;101337.97;5050824;28;20506;-71
2023/05/29 05:36:52;;;;;;;9.18;7.50;;;;;;;20.53;100.00;101376.31;5051221;28;20411;-72
2023/05/29 05:39:17;;;;;;;8.23;7.40;;;;;;;20.39;100.00;101352.84;5049453;28;20075;-71
2023/05/29 05:41:43;;;;;;;9.00;8.10;;;;;;;20.55;100.00;101348.66;5050989;28;20430;-69
2023/05/29 05:44:08;;;;;;;12.48;7.90;;;;;;;20.39;100.00;101333.94;5051228;28;20419;-70
2023/05/29 05:46:33;;;;;;;7.65;6.85;;;;;;;20.39;100.00;101360.59;5032758;28;20033;-70
2023/05/29 05:49:00;;;;;;;8.73;6.88;;;;;;;20.33;100.00;101296.31;5033209;28;20555;-70
2023/05/29 05:51:26;;;;;;;9.35;7.57;;;;;;;20.42;100.00;101357.88;5051053;28;20037;-70
2023/05/29 05:53:52;;;;;;;9.02;8.00;;;;;;;20.70;100.00;101372.91;5051345;28;20163;-70
2023/05/29 05:56:17;;;;;;;11.85;7.82;;;;;;;20.88;100.00;101360.88;5051165;28;20414;-70
2023/05/29 05:58:43;;;;;;;10.73;8.75;;;;;;;20.46;100.00;101302.53;5050946;28;20091;-70
2023/05/29 06:01:08;;;;;;;9.25;8.15;;;;;;;20.60;100.00;101305.31;5050739;28;20475;-71
2023/05/29 06:03:34;;;;;;;11.20;8.90;;;;;;;21.15;100.00;101359.56;5031918;28;20033;-71
2023/05/29 06:06:00;;;;;;;10.30;8.45;;;;;;;21.20;100.00;101348.06;5032663;28;20044;-69
2023/05/29 06:08:25;;;;;;;8.98;8.07;;;;;;;21.34;100.00;101343.03;5050340;28;20032;-70
2023/05/29 06:10:51;;;;;;;8.38;7.50;;;;;;;21.18;100.00;101303.31;5053647;28;20230;-70
2023/05/29 06:13:16;;;;;;;8.52;7.70;;;;;;;21.62;100.00;101341.63;5070616;28;20028;-70
2023/05/29 06:15:43;;;;;;;8.02;7.20;;;;;;;21.78;100.00;101342.50;5070448;28;20771;-70
2023/05/29 06:18:08;;;;;;;8.38;7.57;;;;;;;21.32;100.00;101338.84;5070325;28;20112;-70
2023/05/29 06:20:34;;;;;;;11.23;6.97;;;;;;;21.63;100.00;101340.72;5070775;28;20116;-69
2023/05/29 06:22:59;;;;;;;7.18;6.47;;;;;;;22.43;100.00;101330.31;5071974;28;20050;-70
2023/05/29 06:25:32;;;;;;;7.47;5.82;;;;;;;22.20;100.00;101271.13;5055061;28;20410;-69
2023/05/29 06:27:59;;;;;;;9.07;6.30;;;;;;;22.88;100.00;101321.72;5054422;28;20025;-69
2023/05/29 06:30:25;;;;;;;7.18;5.45;;;;;;;22.25;100.00;101314.91;5054188;28;20078;-70
2023/05/29 06:32:50;;;;;;;7.03;5.57;;;;;;;22.14;100.00;101302.56;5054600;28;20066;-69
2023/05/29 06:35:16;;;;;;;6.38;5.60;;;;;;;21.59;100.00;101252.84;5053743;28;20036;-69
2023/05/29 06:37:41;;;;;;;6.70;5.88;;;;;;;21.89;100.00;101293.63;5054621;28;20039;-70
2023/05/29 06:40:07;;;;;;;6.70;5.45;;;;;;;21.69;100.00;101292.03;5054388;28;20029;-69
2023/05/29 06:42:33;;;;;;;7.80;5.45;;;;;;;21.80;100.00;101278.53;5053099;28;20037;-69
2023/05/29 06:44:58;;;;;;;7.20;5.43;;;;;;;21.70;100.00;101270.41;5036193;28;20503;-69
2023/05/29 06:47:24;;;;;;;6.10;5.50;;;;;;;21.44;100.00;101222.59;5035773;28;20038;-69
2023/05/29 06:49:49;;;;;;;6.35;5.63;;;;;;;21.56;100.00;101255.59;5053699;28;20025;-69
2023/05/29 06:52:14;;;;;;;6.25;5.45;;;;;;;21.67;100.00;101272.34;5053363;28;20423;-69
2023/05/29 06:54:41;;;;;;;6.43;5.50;;;;;;;21.71;100.00;101266.88;5035992;28;20438;-69
2023/05/29 06:57:06;;;;;;;6.78;5.70;;;;;;;21.65;100.00;101246.50;5053787;28;20033;-69
2023/05/29 06:59:33;;;;;;;8.98;5.28;;;;;;;21.63;100.00;101248.34;5053918;28;20048;-70
2023/05/29 07:01:58;;;;;;;5.95;4.93;;;;;;;21.50;100.00;101183.47;5053658;28;20043;-70
2023/05/29 07:04:24;;;;;;;6.45;5.07;;;;;;;21.57;100.00;101213.25;5053632;28;20116;-70
2023/05/29 07:06:49;;;;;;;6.05;5.05;;;;;;;21.99;100.00;101243.78;5053721;28;20025;-71
2023/05/29 07:09:15;;;;;;;5.50;5.00;;;;;;;21.84;100.00;101210.97;5054209;28;20402;-70
2023/05/29 07:11:40;;;;;;;5.85;5.32;;;;;;;22.23;100.00;101258.00;5035829;28;20492;-70
2023/05/29 07:14:06;;;;;;;6.60;5.50;;;;;;;21.93;100.00;101251.06;5053558;28;20047;-70
2023/05/29 07:16:32;;;;;;;6.03;4.50;;;;;;;22.01;100.00;101262.69;5034904;28;20037;-71
2023/05/29 07:18:58;;;;;;;4.75;4.30;;;;;;;21.83;100.00;101204.09;5053969;28;20481;-69
2023/05/29 07:21:24;;;;;;;6.15;5.30;;;;;;;21.82;100.00;101165.34;5034937;28;20032;-70
2023/05/29 07:23:49;;;;;;;8.15;4.72;;;;;;;22.17;100.00;101249.72;5035587;28;20460;-70
2023/05/29 07:26:14;;;;;;;6.40;4.68;;;;;;;21.89;100.00;101203.78;5035424;28;20036;-70
2023/05/29 07:28:41;;;;;;;7.10;5.07;;;;;;;21.98;100.00;101239.56;5053188;28;20065;-71
2023/05/29 07:31:06;;;;;;;5.40;4.88;;;;;;;21.92;100.00;101213.97;5053710;28;20060;-71
2023/05/29 07:33:32;;;;;;;7.38;5.68;;;;;;;21.91;100.00;101193.31;5052104;28;20068;-69
2023/05/29 07:35:57;;;;;;;6.80;5.47;;;;;;;21.98;100.00;101200.69;5053135;28;20035;-69
2023/05/29 07:38:23;;;;;;;6.78;4.90;;;;;;;21.73;100.00;101196.91;5052652;28;20037;-69
2023/05/29 07:40:48;;;;;;;8.32;6.25;;;;;;;22.20;100.00;101249.56;5034886;28;20033;-70
2023/05/29 07:43:13;;;;;;;7.05;5.57;;;;;;;22.33;100.00;101227.22;5052248;28;20480;-69
2023/05/29 07:45:39;;;;;;;6.85;5.22;;;;;;;22.32;100.00;101239.31;5042954;28;20501;-69
2023/05/29 07:48:04;;;;;;;5.93;5.30;;;;;;;22.22;100.00;101216.63;5072451;28;20482;-69
2023/05/29 07:50:31;;;;;;;5.63;4.95;;;;;;;21.98;100.00;101195.50;5071763;28;20408;-69
2023/05/29 07:52:57;;;;;;;5.47;4.95;;;;;;;22.33;100.00;101238.41;5054847;28;20028;-69
2023/05/29 07:55:22;;;;;;;7.28;4.80;;;;;;;22.46;100.00;101232.53;5072790;28;20044;-68
2023/05/29 07:57:48;;;;;;;6.50;4.90;;;;;;;22.56;100.00;101246.66;5073132;28;20443;-69
2023/05/29 08:00:14;;;;;;;5.60;5.10;;;;;;;22.24;100.00;101170.72;5072524;28;20562;-69
2023/05/29 08:02:40;;;;;;;7.18;5.22;;;;;;;22.81;100.00;101200.25;5071544;28;20043;-70
2023/05/29 08:05:07;;;;;;;7.32;4.80;;;;;;;22.79;100.00;101222.84;5072580;28;20379;-68
2023/05/29 08:07:33;;;;;;;7.25;4.90;;;;;;;22.91;100.00;101224.72;5072685;28;20028;-69
2023/05/29 08:09:58;;;;;;;6.13;4.63;;;;;;;23.70;100.00;101203.41;5072409;28;20081;-69
2023/05/29 08:12:24;;;;;;;8.65;4.95;;;;;;;23.15;100.00;101236.25;5072602;28;20121;-69
2023/05/29 08:14:50;;;;;;;5.20;4.68;;;;;;;23.35;100.00;101190.94;5072346;28;20051;-69
2023/05/29 08:17:16;;;;;;;5.40;4.75;;;;;;;23.04;100.00;101204.91;5072450;28;20498;-69
2023/05/29 08:19:41;;;;;;;6.20;4.70;;;;;;;23.35;100.00;101230.72;5072355;28;20028;-69
2023/05/29 08:22:06;;;;;;;7.72;4.93;;;;;;;23.03;100.00;101230.03;5072004;28;20477;-69
2023/05/29 08:24:32;;;;;;;5.18;4.47;;;;;;;22.80;100.00;101185.63;5072157;28;20024;-69
2023/05/29 08:26:58;;;;;;;6.32;4.45;;;;;;;22.89;100.00;101216.19;5071660;28;20127;-69
2023/05/29 08:29:23;;;;;;;7.03;4.90;;;;;;;23.31;100.00;101208.47;5071082;28;20123;-71
2023/05/29 08:31:49;;;;;;;7.20;4.90;;;;;;;23.20;100.00;101184.88;5054008;28;20426;-71
2023/05/29 08:34:15;;;;;;;4.93;4.40;;;;;;;23.17;100.00;101224.00;5072137;28;20116;-70
2023/05/29 08:36:41;;;;;;;5.78;4.63;;;;;;;22.82;100.00;101169.03;5071961;28;20439;-70
2023/05/29 08:39:06;;;;;;;6.35;4.97;;;;;;;23.66;100.00;101217.53;5053815;28;20094;-69
2023/05/29 08:41:38;;;;;;;6.18;4.88;;;;;;;23.92;100.00;101234.91;5071791;28;20461;-69
2023/05/29 08:44:05;;;;;;;6.30;4.47;;;;;;;23.46;100.00;101163.38;5072176;28;20127;-69
2023/05/29 08:46:32;;;;;;;6.57;4.50;;;;;;;24.18;100.00;101227.25;5071772;28;20032;-71
2023/05/29 08:48:59;;;;;;;4.75;3.92;;;;;;;24.66;100.00;101224.84;5071561;28;20123;-68
2023/05/29 08:51:31;;;;;;;7.10;4.05;;;;;;;23.88;100.00;101163.28;5071794;28;20040;-68
2023/05/29 08:53:56;;;;;;;5.32;4.10;;;;;;;24.12;100.00;101210.28;5071751;28;20081;-69
2023/05/29 08:56:22;;;;;;;4.90;4.13;;;;;;;23.57;100.00;101147.94;5071469;28;20029;-69
2023/05/29 08:58:48;;;;;;;6.20;4.15;;;;;;;24.11;100.00;101213.78;5071173;28;20036;-69
2023/05/29 09:01:14;;;;;;;4.85;4.22;;;;;;;23.10;100.00;101117.13;5071061;28;20333;-69
2023/05/29 09:03:41;;;;;;;5.50;3.95;;;;;;;23.75;100.00;101156.38;5072196;28;20024;-70
2023/05/29 09:06:08;;;;;;;6.93;4.53;;;;;;;24.47;100.00;101149.00;5071572;28;20021;-69
2023/05/29 09:08:34;;;;;;;4.93;3.70;;;;;;;25.09;100.00;101199.44;5071408;28;20047;-70
2023/05/29 09:11:00;;;;;;;4.40;4.00;;;;;;;24.72;100.00;101138.63;5070631;28;20033;-69
2023/05/29 09:13:28;;;;;;;5.25;3.95;;;;;;;25.13;100.00;101151.41;5069335;28;20028;-70
2023/05/29 09:15:58;;;;;;;5.47;4.18;;;;;;;25.61;100.00;101181.84;5052661;28;20481;-69
2023/05/29 09:18:29;;;;;;;5.20;3.92;;;;;;;24.68;100.00;101146.72;5053245;28;20177;-69
2023/05/29 09:20:55;;;;;;;5.65;3.97;;;;;;;24.13;100.00;101138.34;5071472;28;20510;-69
2023/05/29 09:23:20;;;;;;;9.48;6.13;;;;;;;23.25;100.00;101195.84;5070881;28;20028;-70
2023/05/29 09:25:52;;;;;;;9.25;7.13;;;;;;;21.24;100.00;101100.34;5070557;28;20028;-72
2023/05/29 09:28:18;;;;;;;9.98;7.10;;;;;;;21.18;100.00;101122.22;5067969;28;20035;-70
2023/05/29 09:30:46;;;;;;;9.93;6.65;;;;;;;21.49;100.00;101191.31;5059140;28;20032;-72
2023/05/29 09:33:13;;;;;;;12.32;8.73;;;;;;;20.93;100.00;101222.69;5051244;28;20403;-70
2023/05/29 09:35:47;;;;;;;13.10;8.73;;;;;;;21.40;100.00;101275.44;5051112;28;20025;-68
2023/05/29 09:38:15;;;;;;;8.00;7.07;;;;;;;20.84;100.00;101271.44;5051995;28;20080;-69
2023/05/29 09:40:42;;;;;;;15.90;8.68;;;;;;;20.91;100.00;101319.34;5065572;28;20114;-70
2023/05/29 09:43:14;;;;;;;17.10;9.45;;;;;;;20.72;100.00;101355.59;5052741;28;20086;-69
2023/05/29 09:45:41;;;;;;;15.68;10.63;;;;;;;20.19;100.00;101278.03;5031579;28;20032;-70
2023/05/29 09:48:08;;;;;;;17.83;11.25;;;;;;;20.69;100.00;101377.28;5065706;28;20123;-71
2023/05/29 09:50:35;;;;;;;13.45;10.05;;;;;;;20.21;100.00;101327.88;5066732;28;20035;-70
2023/05/29 09:53:01;;;;;;;13.98;9.70;;;;;;;20.89;100.00;101393.59;5069106;28;20067;-70
2023/05/29 09:55:28;;;;;;;13.52;9.02;;;;;;;20.54;100.00;101393.47;5037624;28;20131;-71
2023/05/29 09:57:54;;;;;;;17.15;10.05;;;;;;;20.50;100.00;101366.09;5049865;28;20040;-72
2023/05/29 10:00:21;;;;;;;11.45;10.25;;;;;;;20.53;100.00;101367.72;5050950;28;20060;-72
2023/05/29 10:02:48;;;;;;;12.98;10.52;;;;;;;20.52;100.00;101381.56;5050974;28;20028;-73
2023/05/29 10:05:15;;;;;;;11.43;10.05;;;;;;;20.62;100.00;101427.56;5051054;28;20116;-73
2023/05/29 10:07:46;;;;;;;13.63;11.68;;;;;;;20.30;100.00;101398.94;5033538;28;20032;-74
2023/05/29 10:10:12;;;;;;;11.67;10.33;;;;;;;20.08;100.00;101424.88;5033045;28;20025;-74
2023/05/29 10:12:39;;;;;;;14.45;10.70;;;;;;;19.75;100.00;101385.84;5032164;28;20283;-75
2023/05/29 10:15:16;;;;;;;12.07;9.85;;;;;;;19.73;100.00;101430.69;5049934;28;20076;-73
2023/05/29 10:17:59;;;;;;;11.75;10.10;;;;;;;19.40;100.00;101398.56;5049243;28;20037;-74
2023/05/29 10:20:34;;;;;;;14.07;10.77;;;;;;;19.92;100.00;101497.88;5033209;28;20783;-73
2023/05/29 10:23:01;;;;;;;10.43;8.52;;;;;;;19.51;100.00;101491.88;5032603;28;20052;-73
2023/05/29 10:25:30;;;;;;;9.43;8.43;;;;;;;19.28;100.00;101486.72;5050913;28;20021;-73
2023/05/29 10:27:58;;;;;;;12.55;9.43;;;;;;;19.41;100.00;101521.50;5051276;28;20040;-73
2023/05/29 10:30:23;;;;;;;11.45;8.60;;;;;;;19.42;100.00;101530.91;5050824;28;20029;-73
2023/05/29 10:33:11;;;;;;;13.13;9.10;;;;;;;19.21;100.00;101526.56;5033407;28;20036;-72
2023/05/29 10:36:15;;;;;;;8.55;7.40;;;;;;;19.19;100.00;101523.22;5033291;28;20029;-72
2023/05/29 10:38:45;;;;;;;8.32;7.45;;;;;;;18.85;100.00;101478.09;5048790;28;20041;-72
2023/05/29 10:41:26;;;;;;;10.18;7.80;;;;;;;19.28;100.00;101520.25;5049203;28;20123;-72
2023/05/29 10:43:58;;;;;;;10.03;9.03;;;;;;;19.44;100.00;101536.84;5050656;28;20484;-73
2023/05/29 10:46:42;;;;;;;11.02;9.38;;;;;;;19.54;100.00;101536.44;5050404;28;20033;-73
2023/05/29 10:49:16;;;;;;;12.73;9.55;;;;;;;19.27;100.00;101420.59;5050590;28;20024;-72
2023/05/29 10:51:42;;;;;;;11.50;9.93;;;;;;;19.35;100.00;101480.47;5050795;28;20033;-73
2023/05/29 10:54:07;;;;;;;12.55;11.25;;;;;;;19.91;100.00;101550.44;5049226;28;20040;-73
2023/05/29 10:56:33;;;;;;;12.98;11.00;;;;;;;19.56;100.00;101493.34;5032185;28;20032;-73
2023/05/29 10:59:01;;;;;;;13.07;11.57;;;;;;;19.96;100.00;101543.34;5048957;28;20047;-73
2023/05/29 11:01:28;;;;;;;13.75;12.35;;;;;;;19.91;100.00;101540.94;5032626;28;20029;-73
2023/05/29 11:04:13;;;;;;;15.98;12.57;;;;;;;19.83;100.00;101537.81;5050087;28;20045;-73
2023/05/29 11:06:39;;;;;;;15.68;13.00;;;;;;;19.88;100.00;101556.56;5050359;28;20040;-73
2023/05/29 11:09:08;;;;;;;13.20;10.77;;;;;;;19.66;100.00;101504.97;5049867;28;20029;-73
2023/05/29 11:11:36;;;;;;;11.07;9.20;;;;;;;20.27;100.00;101552.34;5054529;28;20029;-72
2023/05/29 11:14:06;;;;;;;13.57;9.48;;;;;;;20.35;100.00;101506.34;5054211;28;20044;-73